createdAt,value
2023-03-17T00:01:03.927Z,62
2023-03-17T00:02:43.652Z,61
2023-03-17T00:04:23.434Z,61
2023-03-17T00:06:03.199Z,62
2023-03-17T00:07:42.893Z,62
2023-03-17T00:09:22.666Z,61
2023-03-17T00:11:02.452Z,61
2023-03-17T00:12:42.187Z,61
2023-03-17T00:14:21.988Z,61
2023-03-17T00:16:01.727Z,61
2023-03-17T00:17:41.598Z,61
2023-03-17T00:19:21.288Z,61
2023-03-17T00:21:01.038Z,61
2023-03-17T00:22:40.811Z,61
2023-03-17T00:24:20.544Z,61
2023-03-17T00:26:00.311Z,61
2023-03-17T00:27:40.058Z,61
2023-03-17T00:29:19.830Z,61
2023-03-17T00:30:59.603Z,61
2023-03-17T00:32:39.354Z,61
2023-03-17T00:34:19.116Z,61
2023-03-17T00:35:58.895Z,61
2023-03-17T00:37:38.733Z,61
2023-03-17T00:39:18.615Z,61
2023-03-17T00:40:58.369Z,61
2023-03-17T00:42:38.007Z,61
2023-03-17T00:44:17.725Z,61
2023-03-17T00:45:57.491Z,61
2023-03-17T00:47:37.228Z,61
2023-03-17T00:49:18.210Z,61
2023-03-17T00:50:56.778Z,61
2023-03-17T00:52:36.546Z,61
2023-03-17T00:54:16.420Z,61
2023-03-17T00:55:56.078Z,61
2023-03-17T00:57:35.943Z,60
2023-03-17T00:59:15.580Z,60
2023-03-17T01:00:55.346Z,60
2023-03-17T01:02:35.090Z,60
2023-03-17T01:04:14.883Z,60
2023-03-17T01:05:54.635Z,60
2023-03-17T01:07:34.411Z,60
2023-03-17T01:09:14.151Z,60
2023-03-17T01:10:53.919Z,60
2023-03-17T01:12:33.700Z,60
2023-03-17T01:14:13.448Z,60
2023-03-17T01:15:53.262Z,60
2023-03-17T01:17:32.979Z,60
2023-03-17T01:19:12.736Z,60
2023-03-17T01:20:52.570Z,60
2023-03-17T01:22:32.263Z,60
2023-03-17T01:24:12.132Z,60
2023-03-17T01:25:51.794Z,60
2023-03-17T01:27:31.548Z,60
2023-03-17T01:29:11.335Z,60
2023-03-17T01:30:51.189Z,60
2023-03-17T01:32:30.847Z,60
2023-03-17T01:34:10.636Z,60
2023-03-17T01:35:50.374Z,59
2023-03-17T01:37:30.149Z,60
2023-03-17T01:39:09.902Z,60
2023-03-17T01:40:49.717Z,60
2023-03-17T01:42:29.436Z,59
2023-03-17T01:44:09.194Z,60
2023-03-17T01:45:48.960Z,60
2023-03-17T01:47:28.722Z,60
2023-03-17T01:49:08.478Z,60
2023-03-17T01:50:48.254Z,60
2023-03-17T01:52:28.101Z,60
2023-03-17T01:54:07.776Z,60
2023-03-17T01:55:47.555Z,59
2023-03-17T01:57:27.319Z,60
2023-03-17T01:59:07.122Z,60
2023-03-17T02:02:26.597Z,59
2023-03-17T02:04:06.359Z,59
2023-03-17T02:05:46.141Z,59
2023-03-17T02:07:25.901Z,59
2023-03-17T02:09:05.665Z,59
2023-03-17T02:10:45.585Z,59
2023-03-17T02:12:25.181Z,59
2023-03-17T02:14:04.937Z,59
2023-03-17T02:15:44.774Z,59
2023-03-17T02:17:24.516Z,59
2023-03-17T02:19:04.274Z,59
2023-03-17T02:20:44.040Z,59
2023-03-17T02:22:23.782Z,59
2023-03-17T02:24:03.573Z,59
2023-03-17T02:25:43.288Z,59
2023-03-17T02:27:23.218Z,59
2023-03-17T02:29:02.816Z,59
2023-03-17T02:30:42.582Z,59
2023-03-17T02:32:22.344Z,59
2023-03-17T02:34:02.150Z,59
2023-03-17T02:35:41.881Z,59
2023-03-17T02:37:21.710Z,59
2023-03-17T02:39:01.405Z,59
2023-03-17T02:40:41.192Z,59
2023-03-17T02:42:20.944Z,59
2023-03-17T02:44:00.726Z,58
2023-03-17T02:45:40.508Z,59
2023-03-17T02:47:20.237Z,59
2023-03-17T02:49:00.000Z,59
2023-03-17T02:50:39.823Z,59
2023-03-17T02:52:19.519Z,59
2023-03-17T02:53:59.276Z,58
2023-03-17T02:55:39.059Z,58
2023-03-17T02:57:18.838Z,58
2023-03-17T02:58:58.687Z,58
2023-03-17T03:00:38.527Z,58
2023-03-17T03:02:18.108Z,58
2023-03-17T03:03:57.877Z,58
2023-03-17T03:05:37.632Z,58
2023-03-17T03:07:17.424Z,58
2023-03-17T03:08:57.162Z,58
2023-03-17T03:10:36.934Z,58
2023-03-17T03:12:16.688Z,58
2023-03-17T03:13:56.459Z,58
2023-03-17T03:15:36.250Z,58
2023-03-17T03:17:15.981Z,58
2023-03-17T03:18:55.746Z,58
2023-03-17T03:20:35.591Z,58
2023-03-17T03:22:15.272Z,58
2023-03-17T03:23:55.041Z,58
2023-03-17T03:25:34.794Z,58
2023-03-17T03:27:14.569Z,58
2023-03-17T03:28:54.324Z,58
2023-03-17T03:30:34.255Z,58
2023-03-17T03:32:13.996Z,58
2023-03-17T03:33:53.665Z,58
2023-03-17T03:35:33.387Z,58
2023-03-17T03:37:13.185Z,58
2023-03-17T03:38:52.951Z,58
2023-03-17T03:40:32.778Z,58
2023-03-17T03:42:12.426Z,58
2023-03-17T03:43:52.203Z,58
2023-03-17T03:45:32.046Z,58
2023-03-17T03:47:11.732Z,58
2023-03-17T03:48:51.554Z,58
2023-03-17T03:50:31.257Z,58
2023-03-17T03:52:11.017Z,58
2023-03-17T03:53:50.783Z,58
2023-03-17T03:55:30.541Z,58
2023-03-17T03:57:10.421Z,58
2023-03-17T03:58:50.100Z,58
2023-03-17T04:00:29.825Z,58
2023-03-17T04:02:09.597Z,58
2023-03-17T04:03:49.362Z,57
2023-03-17T04:05:29.120Z,57
2023-03-17T04:07:08.891Z,57
2023-03-17T04:08:48.667Z,57
2023-03-17T04:10:28.508Z,57
2023-03-17T04:12:08.184Z,58
2023-03-17T04:13:47.950Z,58
2023-03-17T04:15:27.695Z,57
2023-03-17T04:17:07.556Z,57
2023-03-17T04:18:47.249Z,57
2023-03-17T04:20:27.127Z,57
2023-03-17T04:22:06.873Z,57
2023-03-17T04:23:46.514Z,57
2023-03-17T04:25:26.287Z,57
2023-03-17T04:27:06.063Z,57
2023-03-17T04:28:45.837Z,57
2023-03-17T04:30:25.609Z,57
2023-03-17T04:32:05.360Z,57
2023-03-17T04:33:45.124Z,57
2023-03-17T04:35:24.874Z,57
2023-03-17T04:37:04.641Z,57
2023-03-17T04:38:44.553Z,57
2023-03-17T04:40:24.162Z,57
2023-03-17T04:42:03.920Z,57
2023-03-17T04:43:43.696Z,57
2023-03-17T04:45:23.455Z,57
2023-03-17T04:47:03.210Z,57
2023-03-17T04:48:42.986Z,57
2023-03-17T04:50:22.866Z,57
2023-03-17T04:52:02.511Z,57
2023-03-17T04:53:42.285Z,57
2023-03-17T04:55:22.050Z,57
2023-03-17T04:57:01.811Z,57
2023-03-17T04:58:41.559Z,57
2023-03-17T05:00:21.518Z,57
2023-03-17T05:02:01.080Z,57
2023-03-17T05:03:40.852Z,57
2023-03-17T05:05:20.642Z,57
2023-03-17T05:07:00.393Z,57
2023-03-17T05:08:40.153Z,57
2023-03-17T05:10:20.111Z,58
2023-03-17T05:11:59.687Z,57
2023-03-17T05:13:39.611Z,57
2023-03-17T05:15:19.198Z,57
2023-03-17T05:16:59.027Z,57
2023-03-17T05:18:38.725Z,57
2023-03-17T05:20:18.529Z,58
2023-03-17T05:21:58.379Z,58
2023-03-17T05:23:38.015Z,58
2023-03-17T05:25:17.779Z,58
2023-03-17T05:26:57.553Z,58
2023-03-17T05:28:37.294Z,58
2023-03-17T05:30:17.100Z,58
2023-03-17T05:31:57.044Z,59
2023-03-17T05:33:36.630Z,58
2023-03-17T05:35:16.373Z,58
2023-03-17T05:36:56.136Z,58
2023-03-17T05:38:35.911Z,59
2023-03-17T05:40:15.664Z,59
2023-03-17T05:41:55.429Z,59
2023-03-17T05:43:35.236Z,59
2023-03-17T05:45:14.950Z,60
2023-03-17T05:46:54.764Z,61
2023-03-17T05:48:34.512Z,61
2023-03-17T05:50:14.250Z,62
2023-03-17T05:51:54.014Z,62
2023-03-17T05:53:33.829Z,63
2023-03-17T05:55:13.526Z,64
2023-03-17T05:56:53.294Z,64
2023-03-17T05:58:33.064Z,64
2023-03-17T06:00:12.896Z,64
2023-03-17T06:01:52.650Z,64
2023-03-17T06:03:32.379Z,66
2023-03-17T06:05:12.111Z,66
2023-03-17T06:06:51.875Z,66
2023-03-17T06:08:31.650Z,67
2023-03-17T06:10:11.418Z,68
2023-03-17T06:11:51.180Z,69
2023-03-17T06:13:30.969Z,69
2023-03-17T06:15:10.760Z,70
2023-03-17T06:16:50.454Z,71
2023-03-17T06:18:30.224Z,73
2023-03-17T06:20:10.038Z,74
2023-03-17T06:21:49.765Z,75
2023-03-17T06:23:29.551Z,75
2023-03-17T06:25:09.312Z,75
2023-03-17T06:26:49.068Z,77
2023-03-17T06:28:28.839Z,78
2023-03-17T06:30:08.597Z,80
2023-03-17T06:31:48.371Z,83
2023-03-17T06:33:28.260Z,83
2023-03-17T06:35:07.951Z,85
2023-03-17T06:36:47.611Z,86
2023-03-17T06:38:27.408Z,88
2023-03-17T06:40:07.185Z,90
2023-03-17T06:41:46.928Z,91
2023-03-17T06:43:26.706Z,92
2023-03-17T06:45:06.441Z,93
2023-03-17T06:46:46.228Z,94
2023-03-17T06:48:25.970Z,96
2023-03-17T06:50:05.743Z,96
2023-03-17T06:51:45.499Z,96
2023-03-17T06:53:25.261Z,97
2023-03-17T06:55:05.038Z,98
2023-03-17T06:56:44.851Z,100
2023-03-17T06:58:24.629Z,100
2023-03-17T07:00:04.335Z,100
2023-03-17T07:01:44.094Z,100
2023-03-17T07:03:23.910Z,100
2023-03-17T07:05:03.622Z,100
2023-03-17T07:06:43.379Z,100
2023-03-17T07:08:23.140Z,100
2023-03-17T07:10:02.924Z,100
2023-03-17T07:11:42.684Z,100
2023-03-17T07:13:22.602Z,100
2023-03-17T07:15:02.275Z,100
2023-03-17T07:16:41.981Z,100
2023-03-17T07:18:21.788Z,100
2023-03-17T07:20:01.511Z,100
2023-03-17T07:21:41.312Z,100
2023-03-17T07:23:21.025Z,100
2023-03-17T07:25:00.806Z,100
2023-03-17T07:26:40.536Z,100
2023-03-17T07:28:20.326Z,100
2023-03-17T07:30:00.129Z,100
2023-03-17T07:31:39.846Z,100
2023-03-17T07:33:19.616Z,100
2023-03-17T07:34:59.361Z,100
2023-03-17T07:36:39.134Z,100
2023-03-17T07:38:18.919Z,100
2023-03-17T07:39:58.672Z,100
2023-03-17T07:41:38.411Z,100
2023-03-17T07:43:18.176Z,100
2023-03-17T07:44:58.024Z,100
2023-03-17T07:46:37.714Z,100
2023-03-17T07:48:17.524Z,100
2023-03-17T07:49:57.262Z,100
2023-03-17T07:51:37.003Z,100
2023-03-17T07:53:16.777Z,100
2023-03-17T07:54:56.537Z,100
2023-03-17T07:56:36.345Z,100
2023-03-17T07:58:16.060Z,100
2023-03-17T07:59:55.849Z,100
2023-03-17T08:01:35.780Z,100
2023-03-17T08:03:15.496Z,100
2023-03-17T08:04:55.213Z,100
2023-03-17T08:06:34.935Z,100
2023-03-17T08:08:14.670Z,100
2023-03-17T08:09:54.455Z,100
2023-03-17T08:11:34.154Z,100
2023-03-17T08:13:13.980Z,100
2023-03-17T08:14:53.686Z,100
2023-03-17T08:16:33.464Z,100
2023-03-17T08:18:13.228Z,100
2023-03-17T08:19:53.005Z,100
2023-03-17T08:21:32.830Z,100
2023-03-17T08:23:12.513Z,100
2023-03-17T08:24:52.274Z,100
2023-03-17T08:26:32.072Z,100
2023-03-17T08:28:11.808Z,100
2023-03-17T08:29:51.587Z,100
2023-03-17T08:31:31.370Z,100
2023-03-17T08:33:11.225Z,100
2023-03-17T08:34:50.983Z,100
2023-03-17T08:36:30.698Z,100
2023-03-17T08:38:10.405Z,100
2023-03-17T08:39:50.149Z,100
2023-03-17T08:41:29.915Z,100
2023-03-17T08:43:09.692Z,100
2023-03-17T08:44:49.448Z,100
2023-03-17T08:46:29.217Z,100
2023-03-17T08:48:09.063Z,100
2023-03-17T08:49:48.956Z,100
2023-03-17T08:51:28.509Z,100
2023-03-17T08:53:08.276Z,100
2023-03-17T08:54:48.120Z,100
2023-03-17T08:56:27.799Z,100
2023-03-17T08:58:07.563Z,100
2023-03-17T08:59:47.334Z,100
2023-03-17T09:01:27.097Z,100
2023-03-17T09:03:07.011Z,100
2023-03-17T09:04:46.618Z,100
2023-03-17T09:06:26.374Z,100
2023-03-17T09:08:06.273Z,100
2023-03-17T09:09:45.902Z,100
2023-03-17T09:11:25.654Z,100
2023-03-17T09:13:05.463Z,100
2023-03-17T09:14:45.342Z,98
2023-03-17T09:16:25.004Z,98
2023-03-17T09:18:04.746Z,100
2023-03-17T09:19:44.569Z,98
2023-03-17T09:21:24.647Z,99
2023-03-17T09:23:04.114Z,100
2023-03-17T09:24:43.847Z,99
2023-03-17T09:26:23.525Z,100
2023-03-17T09:28:03.356Z,97
2023-03-17T09:29:43.079Z,99
2023-03-17T09:31:22.841Z,99
2023-03-17T09:33:02.605Z,98
2023-03-17T09:34:42.373Z,98
2023-03-17T09:36:22.127Z,98
2023-03-17T09:38:01.891Z,100
2023-03-17T09:39:41.666Z,99
2023-03-17T09:41:21.395Z,100
2023-03-17T09:43:01.241Z,100
2023-03-17T09:44:41.012Z,100
2023-03-17T09:46:20.699Z,97
2023-03-17T09:48:00.510Z,100
2023-03-17T09:49:40.294Z,98
2023-03-17T09:51:20.108Z,98
2023-03-17T09:52:59.769Z,99
2023-03-17T09:54:39.540Z,100
2023-03-17T09:56:19.625Z,98
2023-03-17T09:57:59.081Z,98
2023-03-17T09:59:38.822Z,98
2023-03-17T10:01:18.581Z,100
2023-03-17T10:02:58.345Z,99
2023-03-17T10:04:38.127Z,100
2023-03-17T10:06:17.878Z,99
2023-03-17T10:07:57.631Z,97
2023-03-17T10:09:37.423Z,100
2023-03-17T10:11:17.246Z,100
2023-03-17T10:12:56.927Z,98
2023-03-17T10:14:36.700Z,98
2023-03-17T10:16:16.487Z,99
2023-03-17T10:17:56.372Z,99
2023-03-17T10:19:36.056Z,97
2023-03-17T10:21:15.758Z,100
2023-03-17T10:22:55.624Z,98
2023-03-17T10:24:35.277Z,98
2023-03-17T10:26:15.037Z,98
2023-03-17T10:27:54.843Z,98
2023-03-17T10:29:34.620Z,98
2023-03-17T10:31:14.335Z,97
2023-03-17T10:32:54.088Z,100
2023-03-17T10:34:33.919Z,100
2023-03-17T10:36:13.644Z,98
2023-03-17T10:37:53.415Z,98
2023-03-17T10:39:33.222Z,100
2023-03-17T10:41:13.004Z,97
2023-03-17T10:42:52.937Z,99
2023-03-17T10:44:32.561Z,97
2023-03-17T10:46:12.384Z,100
2023-03-17T10:47:52.026Z,97
2023-03-17T10:49:31.870Z,98
2023-03-17T10:51:11.709Z,98
2023-03-17T10:52:51.285Z,97
2023-03-17T10:54:31.189Z,98
2023-03-17T10:56:11.024Z,99
2023-03-17T10:57:50.649Z,99
2023-03-17T10:59:30.338Z,99
2023-03-17T11:01:10.263Z,100
2023-03-17T11:02:50.029Z,100
2023-03-17T11:04:29.604Z,100
2023-03-17T11:06:09.534Z,100
2023-03-17T11:07:49.356Z,97
2023-03-17T11:09:29.070Z,98
2023-03-17T11:11:08.843Z,98
2023-03-17T11:12:48.670Z,99
2023-03-17T11:14:28.421Z,100
2023-03-17T11:16:08.109Z,100
2023-03-17T11:17:47.994Z,98
2023-03-17T11:19:27.637Z,100
2023-03-17T11:21:07.435Z,100
2023-03-17T11:22:47.168Z,99
2023-03-17T11:24:26.960Z,100
2023-03-17T11:26:06.552Z,99
2023-03-17T11:27:46.462Z,99
2023-03-17T11:29:26.082Z,100
2023-03-17T11:31:06.018Z,98
2023-03-17T11:32:45.727Z,100
2023-03-17T11:34:25.575Z,100
2023-03-17T11:36:05.324Z,100
2023-03-17T11:37:45.033Z,100
2023-03-17T11:39:24.839Z,100
2023-03-17T11:41:04.620Z,100
2023-03-17T11:42:44.407Z,98
2023-03-17T11:44:24.089Z,98
2023-03-17T11:46:03.876Z,98
2023-03-17T11:47:43.612Z,100
2023-03-17T11:49:23.435Z,99
2023-03-17T11:51:03.222Z,100
2023-03-17T11:52:42.918Z,97
2023-03-17T11:54:22.718Z,100
2023-03-17T11:56:02.484Z,100
2023-03-17T11:57:42.197Z,100
2023-03-17T11:59:21.985Z,100
2023-03-17T12:01:01.779Z,97
2023-03-17T12:02:41.536Z,100
2023-03-17T12:04:21.305Z,98
2023-03-17T12:06:01.052Z,98
2023-03-17T12:07:41.360Z,100
2023-03-17T12:09:20.614Z,99
2023-03-17T12:11:00.341Z,98
2023-03-17T12:12:40.097Z,99
2023-03-17T12:14:19.818Z,98
2023-03-17T12:15:59.613Z,99
2023-03-17T12:17:39.408Z,98
2023-03-17T12:19:19.221Z,99
2023-03-17T12:20:58.904Z,98
2023-03-17T12:22:38.737Z,98
2023-03-17T12:24:18.311Z,100
2023-03-17T12:25:58.218Z,99
2023-03-17T12:27:37.985Z,100
2023-03-17T12:29:17.711Z,100
2023-03-17T12:30:57.455Z,98
2023-03-17T12:32:37.112Z,98
2023-03-17T12:34:16.860Z,97
2023-03-17T12:35:56.627Z,97
2023-03-17T12:37:36.532Z,100
2023-03-17T12:39:16.177Z,100
2023-03-17T12:40:56.010Z,99
2023-03-17T12:42:35.698Z,99
2023-03-17T12:44:15.535Z,99
2023-03-17T12:45:55.211Z,99
2023-03-17T12:47:35.088Z,98
2023-03-17T12:49:14.776Z,100
2023-03-17T12:50:54.602Z,98
2023-03-17T12:52:34.304Z,98
2023-03-17T12:54:14.036Z,98
2023-03-17T12:55:53.891Z,100
2023-03-17T12:57:33.565Z,99
2023-03-17T12:59:13.324Z,100
2023-03-17T13:00:53.102Z,97
2023-03-17T13:02:32.947Z,97
2023-03-17T13:04:12.600Z,100
2023-03-17T13:05:52.375Z,100
2023-03-17T13:07:32.208Z,100
2023-03-17T13:09:11.956Z,100
2023-03-17T13:10:52.026Z,97
2023-03-17T13:12:31.442Z,98
2023-03-17T13:14:11.254Z,99
2023-03-17T13:15:50.957Z,100
2023-03-17T13:17:30.784Z,100
2023-03-17T13:19:10.474Z,97
2023-03-17T13:20:50.259Z,98
2023-03-17T13:22:29.998Z,98
2023-03-17T13:24:09.880Z,98
2023-03-17T13:25:49.538Z,99
2023-03-17T13:27:29.350Z,100
2023-03-17T13:29:09.087Z,100
2023-03-17T13:30:48.828Z,98
2023-03-17T13:32:28.627Z,100
2023-03-17T13:34:08.442Z,100
2023-03-17T13:35:48.140Z,100
2023-03-17T13:37:28.004Z,100
2023-03-17T13:39:07.647Z,100
2023-03-17T13:40:47.475Z,100
2023-03-17T13:42:27.264Z,100
2023-03-17T13:44:06.945Z,100
2023-03-17T13:45:46.731Z,100
2023-03-17T13:47:26.468Z,100
2023-03-17T13:49:06.270Z,100
2023-03-17T13:50:46.030Z,98
2023-03-17T13:52:25.832Z,98
2023-03-17T13:54:05.525Z,98
2023-03-17T13:55:45.423Z,99
2023-03-17T13:57:25.054Z,98
2023-03-17T13:59:04.863Z,99
2023-03-17T14:00:44.570Z,100
2023-03-17T14:02:24.333Z,100
2023-03-17T14:04:04.128Z,100
2023-03-17T14:05:44.058Z,97
2023-03-17T14:07:23.636Z,97
2023-03-17T14:09:03.448Z,99
2023-03-17T14:10:43.157Z,100
2023-03-17T14:12:22.956Z,100
2023-03-17T14:14:02.707Z,99
2023-03-17T14:15:42.446Z,99
2023-03-17T14:17:22.356Z,100
2023-03-17T14:19:02.011Z,100
2023-03-17T14:20:41.847Z,100
2023-03-17T14:22:21.522Z,100
2023-03-17T14:24:01.292Z,98
2023-03-17T14:25:41.196Z,98
2023-03-17T14:27:20.813Z,98
2023-03-17T14:29:00.665Z,98
2023-03-17T14:30:40.398Z,98
2023-03-17T14:32:20.104Z,98
2023-03-17T14:33:59.862Z,99
2023-03-17T14:35:39.789Z,99
2023-03-17T14:37:19.395Z,98
2023-03-17T14:38:59.229Z,97
2023-03-17T14:40:38.950Z,99
2023-03-17T14:42:18.685Z,100
2023-03-17T14:43:58.571Z,97
2023-03-17T14:45:38.284Z,99
2023-03-17T14:47:18.053Z,100
2023-03-17T14:48:57.791Z,96
2023-03-17T14:50:37.554Z,100
2023-03-17T14:52:17.373Z,100
2023-03-17T14:53:57.128Z,100
2023-03-17T14:55:36.846Z,98
2023-03-17T14:57:16.612Z,98
2023-03-17T14:58:56.491Z,99
2023-03-17T15:00:36.154Z,99
2023-03-17T15:02:15.835Z,98
2023-03-17T15:03:55.623Z,98
2023-03-17T15:05:35.368Z,98
2023-03-17T15:07:15.192Z,98
2023-03-17T15:08:54.957Z,100
2023-03-17T15:10:34.725Z,100
2023-03-17T15:12:14.465Z,97
2023-03-17T15:13:54.211Z,100
2023-03-17T15:15:33.965Z,100
2023-03-17T15:17:13.719Z,100
2023-03-17T15:18:53.500Z,99
2023-03-17T15:20:33.402Z,100
2023-03-17T15:22:13.030Z,97
2023-03-17T15:23:52.779Z,97
2023-03-17T15:25:32.574Z,100
2023-03-17T15:27:12.350Z,99
2023-03-17T15:28:52.086Z,100
2023-03-17T15:30:31.841Z,100
2023-03-17T15:32:11.603Z,98
2023-03-17T15:33:51.530Z,98
2023-03-17T15:35:31.236Z,98
2023-03-17T15:37:10.883Z,100
2023-03-17T15:38:50.858Z,100
2023-03-17T15:40:30.649Z,100
2023-03-17T15:42:10.337Z,98
2023-03-17T15:43:50.119Z,98
2023-03-17T15:45:29.870Z,98
2023-03-17T15:47:09.486Z,100
2023-03-17T15:48:49.403Z,96
2023-03-17T15:50:29.020Z,98
2023-03-17T15:52:08.812Z,98
2023-03-17T15:53:48.559Z,97
2023-03-17T15:55:28.291Z,100
2023-03-17T15:57:08.063Z,98
2023-03-17T15:58:47.998Z,100
2023-03-17T16:00:27.755Z,100
2023-03-17T16:02:07.491Z,100
2023-03-17T16:03:47.286Z,98
2023-03-17T16:05:27.014Z,98
2023-03-17T16:07:06.686Z,100
2023-03-17T16:08:46.511Z,99
2023-03-17T16:10:26.287Z,97
2023-03-17T16:12:05.945Z,99
2023-03-17T16:13:45.863Z,98
2023-03-17T16:15:25.542Z,98
2023-03-17T16:17:05.285Z,99
2023-03-17T16:18:45.009Z,98
2023-03-17T16:20:24.901Z,100
2023-03-17T16:22:04.597Z,99
2023-03-17T16:23:44.295Z,98
2023-03-17T16:25:24.063Z,98
2023-03-17T16:27:03.845Z,100
2023-03-17T16:28:43.593Z,100
2023-03-17T16:30:23.393Z,99
2023-03-17T16:32:03.162Z,98
2023-03-17T16:33:42.861Z,98
2023-03-17T16:35:22.668Z,98
2023-03-17T16:37:02.466Z,99
2023-03-17T16:38:42.153Z,100
2023-03-17T16:40:22.009Z,99
2023-03-17T16:42:01.830Z,100
2023-03-17T16:43:41.537Z,100
2023-03-17T16:45:21.272Z,99
2023-03-17T16:47:01.001Z,91
2023-03-17T16:48:40.774Z,80
2023-03-17T16:50:20.638Z,78
2023-03-17T16:52:00.261Z,76
2023-03-17T16:53:40.033Z,75
2023-03-17T16:55:20.154Z,75
2023-03-17T16:56:59.580Z,75
2023-03-17T16:58:39.332Z,74
2023-03-17T17:00:19.166Z,73
2023-03-17T17:01:58.850Z,73
2023-03-17T17:03:38.637Z,72
2023-03-17T17:05:18.382Z,72
2023-03-17T17:06:58.144Z,72
2023-03-17T17:08:37.939Z,71
2023-03-17T17:10:17.718Z,71
2023-03-17T17:11:57.503Z,71
2023-03-17T17:13:37.352Z,71
2023-03-17T17:15:16.967Z,71
2023-03-17T17:16:56.782Z,70
2023-03-17T17:18:36.492Z,70
2023-03-17T17:20:16.250Z,69
2023-03-17T17:21:56.042Z,69
2023-03-17T17:23:35.900Z,69
2023-03-17T17:25:15.541Z,69
2023-03-17T17:26:55.316Z,69
2023-03-17T17:28:35.213Z,69
2023-03-17T17:30:14.867Z,69
2023-03-17T17:31:54.607Z,69
2023-03-17T17:33:34.373Z,69
2023-03-17T17:35:14.129Z,69
2023-03-17T17:36:54.018Z,69
2023-03-17T17:38:33.678Z,68
2023-03-17T17:40:13.462Z,69
2023-03-17T17:41:53.213Z,68
2023-03-17T17:43:32.965Z,68
2023-03-17T17:45:12.727Z,68
2023-03-17T17:46:52.614Z,68
2023-03-17T17:48:32.259Z,68
2023-03-17T17:50:12.004Z,68
2023-03-17T17:51:51.769Z,68
2023-03-17T17:53:31.681Z,68
2023-03-17T17:55:11.322Z,68
2023-03-17T17:56:51.044Z,68
2023-03-17T17:58:30.853Z,68
2023-03-17T18:00:10.592Z,68
2023-03-17T18:01:50.352Z,68
2023-03-17T18:03:30.165Z,68
2023-03-17T18:05:09.864Z,68
2023-03-17T18:06:49.639Z,68
2023-03-17T18:08:29.412Z,68
2023-03-17T18:10:09.169Z,68
2023-03-17T18:11:48.928Z,68
2023-03-17T18:13:28.711Z,68
2023-03-17T18:15:08.461Z,68
2023-03-17T18:16:48.246Z,68
2023-03-17T18:18:28.001Z,68
2023-03-17T18:20:07.749Z,68
2023-03-17T18:21:47.584Z,68
2023-03-17T18:23:27.281Z,68
2023-03-17T18:25:07.065Z,68
2023-03-17T18:26:46.817Z,68
2023-03-17T18:28:26.651Z,68
2023-03-17T18:30:06.329Z,67
2023-03-17T18:31:46.100Z,68
2023-03-17T18:33:25.869Z,68
2023-03-17T18:35:05.633Z,68
2023-03-17T18:36:45.391Z,67
2023-03-17T18:38:25.167Z,67
2023-03-17T18:40:04.915Z,67
2023-03-17T18:41:44.741Z,67
2023-03-17T18:43:24.447Z,67
2023-03-17T18:45:04.218Z,67
2023-03-17T18:46:43.985Z,67
2023-03-17T18:48:23.765Z,67
2023-03-17T18:50:03.501Z,67
2023-03-17T18:51:43.262Z,67
2023-03-17T18:53:23.023Z,67
2023-03-17T18:55:02.802Z,67
2023-03-17T18:56:42.611Z,67
2023-03-17T18:58:22.340Z,67
2023-03-17T19:00:02.078Z,67
2023-03-17T19:01:41.854Z,67
2023-03-17T19:03:21.615Z,67
2023-03-17T19:05:01.391Z,67
2023-03-17T19:06:41.162Z,67
2023-03-17T19:08:20.963Z,67
2023-03-17T19:10:00.738Z,67
2023-03-17T19:11:40.451Z,67
2023-03-17T19:13:20.215Z,67
2023-03-17T19:15:00.011Z,67
2023-03-17T19:16:39.732Z,67
2023-03-17T19:18:19.505Z,67
2023-03-17T19:19:59.244Z,67
2023-03-17T19:21:39.154Z,67
2023-03-17T19:23:18.817Z,67
2023-03-17T19:24:58.588Z,67
2023-03-17T19:26:38.300Z,67
2023-03-17T19:28:18.089Z,67
2023-03-17T19:29:57.834Z,66
2023-03-17T19:31:37.592Z,66
2023-03-17T19:33:17.352Z,66
2023-03-17T19:34:57.130Z,66
2023-03-17T19:36:36.871Z,66
2023-03-17T19:38:16.714Z,66
2023-03-17T19:39:56.418Z,67
2023-03-17T19:41:36.184Z,66
2023-03-17T19:43:15.943Z,66
2023-03-17T19:44:55.718Z,66
2023-03-17T19:46:35.490Z,66
2023-03-17T19:48:15.252Z,66
2023-03-17T19:49:55.051Z,66
2023-03-17T19:51:34.836Z,66
2023-03-17T19:53:14.525Z,66
2023-03-17T19:54:54.379Z,66
2023-03-17T19:56:34.135Z,66
2023-03-17T19:58:13.843Z,66
2023-03-17T19:59:53.641Z,66
2023-03-17T20:01:33.382Z,66
2023-03-17T20:03:13.128Z,66
2023-03-17T20:04:52.898Z,66
2023-03-17T20:06:32.639Z,66
2023-03-17T20:08:12.402Z,66
2023-03-17T20:09:52.176Z,66
2023-03-17T20:11:31.935Z,66
2023-03-17T20:13:11.723Z,66
2023-03-17T20:14:51.478Z,66
2023-03-17T20:16:31.216Z,66
2023-03-17T20:18:11.032Z,66
2023-03-17T20:19:50.747Z,66
2023-03-17T20:21:30.590Z,65
2023-03-17T20:23:10.274Z,66
2023-03-17T20:24:50.042Z,66
2023-03-17T20:26:29.829Z,66
2023-03-17T20:28:09.591Z,66
2023-03-17T20:29:49.429Z,66
2023-03-17T20:31:29.098Z,66
2023-03-17T20:33:08.869Z,66
2023-03-17T20:34:48.631Z,66
2023-03-17T20:36:28.388Z,66
2023-03-17T20:38:08.205Z,66
2023-03-17T20:39:47.933Z,66
2023-03-17T20:41:27.718Z,65
2023-03-17T20:43:07.456Z,65
2023-03-17T20:44:47.223Z,65
2023-03-17T20:46:26.978Z,65
2023-03-17T20:48:06.833Z,65
2023-03-17T20:49:46.519Z,65
2023-03-17T20:51:26.309Z,65
2023-03-17T20:53:06.035Z,65
2023-03-17T20:54:45.792Z,65
2023-03-17T20:56:25.555Z,65
2023-03-17T20:58:05.320Z,65
2023-03-17T20:59:45.104Z,65
2023-03-17T21:01:24.913Z,65
2023-03-17T21:03:04.608Z,65
2023-03-17T21:04:44.366Z,65
2023-03-17T21:06:24.131Z,65
2023-03-17T21:08:03.913Z,65
2023-03-17T21:09:43.663Z,65
2023-03-17T21:11:23.532Z,65
2023-03-17T21:13:03.228Z,65
2023-03-17T21:14:42.964Z,65
2023-03-17T21:16:22.712Z,66
2023-03-17T21:18:02.589Z,65
2023-03-17T21:19:42.298Z,65
2023-03-17T21:21:22.025Z,65
2023-03-17T21:23:01.795Z,65
2023-03-17T21:24:41.531Z,65
2023-03-17T21:26:21.312Z,65
2023-03-17T21:28:01.102Z,65
2023-03-17T21:29:40.853Z,64
2023-03-17T21:31:20.660Z,64
2023-03-17T21:33:00.366Z,64
2023-03-17T21:34:40.134Z,64
2023-03-17T21:36:19.881Z,65
2023-03-17T21:37:59.716Z,65
2023-03-17T21:39:39.488Z,65
2023-03-17T21:41:19.185Z,65
2023-03-17T21:42:58.930Z,65
2023-03-17T21:44:38.722Z,65
2023-03-17T21:46:18.468Z,65
2023-03-17T21:47:58.239Z,65
2023-03-17T21:49:38.044Z,65
2023-03-17T21:51:17.752Z,65
2023-03-17T21:52:57.530Z,65
2023-03-17T21:54:37.285Z,65
2023-03-17T21:56:17.057Z,65
2023-03-17T21:57:56.825Z,65
2023-03-17T21:59:36.608Z,65
2023-03-17T22:01:16.506Z,64
2023-03-17T22:02:56.093Z,65
2023-03-17T22:04:35.858Z,64
2023-03-17T22:06:15.642Z,64
2023-03-17T22:07:55.410Z,64
2023-03-17T22:09:35.239Z,64
2023-03-17T22:11:15.056Z,64
2023-03-17T22:12:54.770Z,64
2023-03-17T22:14:34.481Z,64
2023-03-17T22:16:14.225Z,65
2023-03-17T22:17:53.987Z,64
2023-03-17T22:19:33.766Z,64
2023-03-17T22:21:13.675Z,64
2023-03-17T22:22:53.306Z,64
2023-03-17T22:24:33.046Z,64
2023-03-17T22:26:12.835Z,64
2023-03-17T22:27:52.613Z,64
2023-03-17T22:29:32.378Z,64
2023-03-17T22:31:12.097Z,64
2023-03-17T22:32:51.882Z,64
2023-03-17T22:34:31.621Z,64
2023-03-17T22:36:11.389Z,64
2023-03-17T22:37:51.180Z,64
2023-03-17T22:39:30.914Z,64
2023-03-17T22:41:10.774Z,64
2023-03-17T22:42:50.452Z,64
2023-03-17T22:44:30.297Z,64
2023-03-17T22:46:10.135Z,64
2023-03-17T22:47:49.759Z,64
2023-03-17T22:49:29.493Z,64
2023-03-17T22:51:09.322Z,64
2023-03-17T22:52:49.038Z,64
2023-03-17T22:54:28.797Z,64
2023-03-17T22:56:08.546Z,64
2023-03-17T22:57:48.330Z,64
2023-03-17T22:59:28.098Z,63
2023-03-17T23:01:07.903Z,64
2023-03-17T23:02:47.623Z,64
2023-03-17T23:04:27.383Z,64
2023-03-17T23:06:07.135Z,64
2023-03-17T23:07:46.903Z,63
2023-03-17T23:09:26.662Z,63
2023-03-17T23:11:06.579Z,63
2023-03-17T23:12:46.210Z,63
2023-03-17T23:14:25.965Z,63
2023-03-17T23:16:05.736Z,63
2023-03-17T23:17:45.494Z,63
2023-03-17T23:19:25.251Z,63
2023-03-17T23:21:05.108Z,63
2023-03-17T23:22:44.786Z,63
2023-03-17T23:24:24.563Z,63
2023-03-17T23:26:04.307Z,64
2023-03-17T23:27:44.081Z,63
2023-03-17T23:29:23.825Z,64
2023-03-17T23:31:03.612Z,63
2023-03-17T23:32:43.353Z,63